sensor_id;sensor_type;location;lat;lon;timestamp;temperature;humidity
32322;DHT22;61553;48.994;8.940;2023-04-16T00:01:38;7.90;99.90
32322;DHT22;61553;48.994;8.940;2023-04-16T00:04:04;7.90;99.90
32322;DHT22;61553;48.994;8.940;2023-04-16T00:06:29;7.90;99.90
32322;DHT22;61553;48.994;8.940;2023-04-16T00:08:56;7.90;99.90
32322;DHT22;61553;48.994;8.940;2023-04-16T00:11:21;7.90;99.90
32322;DHT22;61553;48.994;8.940;2023-04-16T00:13:47;7.90;99.90
32322;DHT22;61553;48.994;8.940;2023-04-16T00:16:13;7.90;99.90
32322;DHT22;61553;48.994;8.940;2023-04-16T00:18:39;7.90;99.90
32322;DHT22;61553;48.994;8.940;2023-04-16T00:21:05;7.90;99.90
32322;DHT22;61553;48.994;8.940;2023-04-16T00:23:30;7.90;99.90
32322;DHT22;61553;48.994;8.940;2023-04-16T00:25:56;7.90;99.90
32322;DHT22;61553;48.994;8.940;2023-04-16T00:28:24;7.90;99.90
32322;DHT22;61553;48.994;8.940;2023-04-16T00:30:50;7.90;99.90
32322;DHT22;61553;48.994;8.940;2023-04-16T00:33:16;7.90;99.90
32322;DHT22;61553;48.994;8.940;2023-04-16T00:35:44;7.90;99.90
32322;DHT22;61553;48.994;8.940;2023-04-16T00:38:10;7.90;99.90
32322;DHT22;61553;48.994;8.940;2023-04-16T00:40:36;7.90;99.90
32322;DHT22;61553;48.994;8.940;2023-04-16T00:43:01;7.90;99.90
32322;DHT22;61553;48.994;8.940;2023-04-16T00:45:27;7.80;99.90
32322;DHT22;61553;48.994;8.940;2023-04-16T00:47:54;7.80;99.90
32322;DHT22;61553;48.994;8.940;2023-04-16T00:50:20;7.90;99.90
32322;DHT22;61553;48.994;8.940;2023-04-16T00:52:49;7.90;99.90
32322;DHT22;61553;48.994;8.940;2023-04-16T00:55:15;7.90;99.90
32322;DHT22;61553;48.994;8.940;2023-04-16T00:57:43;7.90;99.90
32322;DHT22;61553;48.994;8.940;2023-04-16T01:00:09;7.90;99.90
32322;DHT22;61553;48.994;8.940;2023-04-16T01:02:35;7.90;99.90
32322;DHT22;61553;48.994;8.940;2023-04-16T01:05:02;7.90;99.90
32322;DHT22;61553;48.994;8.940;2023-04-16T01:07:28;7.90;99.90
32322;DHT22;61553;48.994;8.940;2023-04-16T01:09:54;7.90;99.90
32322;DHT22;61553;48.994;8.940;2023-04-16T01:12:20;7.80;99.90
32322;DHT22;61553;48.994;8.940;2023-04-16T01:14:46;7.90;99.90
32322;DHT22;61553;48.994;8.940;2023-04-16T01:17:12;7.90;99.90
32322;DHT22;61553;48.994;8.940;2023-04-16T01:19:37;7.90;99.90
32322;DHT22;61553;48.994;8.940;2023-04-16T01:22:03;7.80;99.90
32322;DHT22;61553;48.994;8.940;2023-04-16T01:24:29;7.90;99.90
32322;DHT22;61553;48.994;8.940;2023-04-16T01:26:57;7.90;99.90
32322;DHT22;61553;48.994;8.940;2023-04-16T01:29:23;7.80;99.90
32322;DHT22;61553;48.994;8.940;2023-04-16T01:31:49;7.90;99.90
32322;DHT22;61553;48.994;8.940;2023-04-16T01:34:15;7.90;99.90
32322;DHT22;61553;48.994;8.940;2023-04-16T01:36:40;7.80;99.90
32322;DHT22;61553;48.994;8.940;2023-04-16T01:39:06;7.80;99.90
32322;DHT22;61553;48.994;8.940;2023-04-16T01:41:36;7.90;99.90
32322;DHT22;61553;48.994;8.940;2023-04-16T01:44:01;7.90;99.90
32322;DHT22;61553;48.994;8.940;2023-04-16T01:46:29;7.90;99.90
32322;DHT22;61553;48.994;8.940;2023-04-16T01:49:00;7.80;99.90
32322;DHT22;61553;48.994;8.940;2023-04-16T01:51:26;7.90;99.90
32322;DHT22;61553;48.994;8.940;2023-04-16T01:53:53;7.90;99.90
32322;DHT22;61553;48.994;8.940;2023-04-16T01:56:19;7.80;99.90
32322;DHT22;61553;48.994;8.940;2023-04-16T01:58:44;7.80;99.90
32322;DHT22;61553;48.994;8.940;2023-04-16T02:01:13;7.90;99.90
32322;DHT22;61553;48.994;8.940;2023-04-16T02:03:39;7.80;99.90
32322;DHT22;61553;48.994;8.940;2023-04-16T02:06:05;7.80;99.90
32322;DHT22;61553;48.994;8.940;2023-04-16T02:08:30;7.80;99.90
32322;DHT22;61553;48.994;8.940;2023-04-16T02:10:57;7.80;99.90
32322;DHT22;61553;48.994;8.940;2023-04-16T02:13:22;7.80;99.90
32322;DHT22;61553;48.994;8.940;2023-04-16T02:15:51;7.80;99.90
32322;DHT22;61553;48.994;8.940;2023-04-16T02:18:17;7.80;99.90
32322;DHT22;61553;48.994;8.940;2023-04-16T02:20:43;7.80;99.90
32322;DHT22;61553;48.994;8.940;2023-04-16T02:23:09;7.80;99.90
32322;DHT22;61553;48.994;8.940;2023-04-16T02:25:44;7.80;99.90
32322;DHT22;61553;48.994;8.940;2023-04-16T02:28:12;7.80;99.90
32322;DHT22;61553;48.994;8.940;2023-04-16T02:30:38;7.80;99.90
32322;DHT22;61553;48.994;8.940;2023-04-16T02:33:05;7.80;99.90
32322;DHT22;61553;48.994;8.940;2023-04-16T02:35:36;7.80;99.90
32322;DHT22;61553;48.994;8.940;2023-04-16T02:38:02;7.80;99.90
32322;DHT22;61553;48.994;8.940;2023-04-16T02:40:29;7.80;99.90
32322;DHT22;61553;48.994;8.940;2023-04-16T02:42:55;7.80;99.90
32322;DHT22;61553;48.994;8.940;2023-04-16T02:45:22;7.80;99.90
32322;DHT22;61553;48.994;8.940;2023-04-16T02:47:48;7.80;99.90
32322;DHT22;61553;48.994;8.940;2023-04-16T02:50:14;7.80;99.90
32322;DHT22;61553;48.994;8.940;2023-04-16T02:52:40;7.80;99.90
32322;DHT22;61553;48.994;8.940;2023-04-16T02:55:06;7.80;99.90
32322;DHT22;61553;48.994;8.940;2023-04-16T02:57:32;7.80;99.90
32322;DHT22;61553;48.994;8.940;2023-04-16T02:59:58;7.70;99.90
32322;DHT22;61553;48.994;8.940;2023-04-16T03:02:24;7.80;99.90
32322;DHT22;61553;48.994;8.940;2023-04-16T03:04:49;7.80;99.90
32322;DHT22;61553;48.994;8.940;2023-04-16T03:07:15;7.80;99.90
32322;DHT22;61553;48.994;8.940;2023-04-16T03:09:42;7.80;99.90
32322;DHT22;61553;48.994;8.940;2023-04-16T03:12:08;7.80;99.90
32322;DHT22;61553;48.994;8.940;2023-04-16T03:14:34;7.70;99.90
32322;DHT22;61553;48.994;8.940;2023-04-16T03:16:59;7.80;99.90
32322;DHT22;61553;48.994;8.940;2023-04-16T03:19:25;7.80;99.90
32322;DHT22;61553;48.994;8.940;2023-04-16T03:21:51;7.80;99.90
32322;DHT22;61553;48.994;8.940;2023-04-16T03:24:16;7.80;99.90
32322;DHT22;61553;48.994;8.940;2023-04-16T03:26:42;7.90;99.90
32322;DHT22;61553;48.994;8.940;2023-04-16T03:29:07;7.80;99.90
32322;DHT22;61553;48.994;8.940;2023-04-16T03:31:33;7.80;99.90
32322;DHT22;61553;48.994;8.940;2023-04-16T03:33:59;7.70;99.90
32322;DHT22;61553;48.994;8.940;2023-04-16T03:36:24;7.80;99.90
32322;DHT22;61553;48.994;8.940;2023-04-16T03:38:51;7.80;99.90
32322;DHT22;61553;48.994;8.940;2023-04-16T03:41:17;7.80;99.90
32322;DHT22;61553;48.994;8.940;2023-04-16T03:43:43;7.80;99.90
32322;DHT22;61553;48.994;8.940;2023-04-16T03:46:08;7.80;99.90
32322;DHT22;61553;48.994;8.940;2023-04-16T03:48:34;7.90;99.90
32322;DHT22;61553;48.994;8.940;2023-04-16T03:51:01;7.80;99.90
32322;DHT22;61553;48.994;8.940;2023-04-16T03:53:26;7.80;99.90
32322;DHT22;61553;48.994;8.940;2023-04-16T03:55:52;7.80;99.90
32322;DHT22;61553;48.994;8.940;2023-04-16T03:58:18;7.80;99.90
32322;DHT22;61553;48.994;8.940;2023-04-16T04:00:44;7.80;99.90
32322;DHT22;61553;48.994;8.940;2023-04-16T04:03:10;7.80;99.90
32322;DHT22;61553;48.994;8.940;2023-04-16T04:05:39;7.80;99.90
32322;DHT22;61553;48.994;8.940;2023-04-16T04:08:06;7.70;99.90
32322;DHT22;61553;48.994;8.940;2023-04-16T04:10:32;7.80;99.90
32322;DHT22;61553;48.994;8.940;2023-04-16T04:12:59;7.80;99.90
32322;DHT22;61553;48.994;8.940;2023-04-16T04:15:24;7.80;99.90
32322;DHT22;61553;48.994;8.940;2023-04-16T04:17:50;7.80;99.90
32322;DHT22;61553;48.994;8.940;2023-04-16T04:20:16;7.80;99.90
32322;DHT22;61553;48.994;8.940;2023-04-16T04:22:42;7.80;99.90
32322;DHT22;61553;48.994;8.940;2023-04-16T04:25:09;7.70;99.90
32322;DHT22;61553;48.994;8.940;2023-04-16T04:27:34;7.80;99.90
32322;DHT22;61553;48.994;8.940;2023-04-16T04:30:00;7.80;99.90
32322;DHT22;61553;48.994;8.940;2023-04-16T04:32:26;7.80;99.90
32322;DHT22;61553;48.994;8.940;2023-04-16T04:34:52;7.70;99.90
32322;DHT22;61553;48.994;8.940;2023-04-16T04:37:17;7.80;99.90
32322;DHT22;61553;48.994;8.940;2023-04-16T04:39:43;7.70;99.90
32322;DHT22;61553;48.994;8.940;2023-04-16T04:42:08;7.70;99.90
32322;DHT22;61553;48.994;8.940;2023-04-16T04:44:34;7.80;99.90
32322;DHT22;61553;48.994;8.940;2023-04-16T04:46:59;7.70;99.90
32322;DHT22;61553;48.994;8.940;2023-04-16T04:49:25;7.70;99.90
32322;DHT22;61553;48.994;8.940;2023-04-16T04:51:51;7.70;99.90
32322;DHT22;61553;48.994;8.940;2023-04-16T04:54:16;7.60;99.90
32322;DHT22;61553;48.994;8.940;2023-04-16T04:56:42;7.70;99.90
32322;DHT22;61553;48.994;8.940;2023-04-16T04:59:10;7.70;99.90
32322;DHT22;61553;48.994;8.940;2023-04-16T05:01:37;7.60;99.90
32322;DHT22;61553;48.994;8.940;2023-04-16T05:04:03;7.60;99.90
32322;DHT22;61553;48.994;8.940;2023-04-16T05:06:28;7.70;99.90
32322;DHT22;61553;48.994;8.940;2023-04-16T05:08:54;7.70;99.90
32322;DHT22;61553;48.994;8.940;2023-04-16T05:11:20;7.70;99.90
32322;DHT22;61553;48.994;8.940;2023-04-16T05:13:46;7.70;99.90
32322;DHT22;61553;48.994;8.940;2023-04-16T05:16:11;7.60;99.90
32322;DHT22;61553;48.994;8.940;2023-04-16T05:18:37;7.70;99.90
32322;DHT22;61553;48.994;8.940;2023-04-16T05:21:02;7.70;99.90
32322;DHT22;61553;48.994;8.940;2023-04-16T05:23:28;7.60;99.90
32322;DHT22;61553;48.994;8.940;2023-04-16T05:25:54;7.70;99.90
32322;DHT22;61553;48.994;8.940;2023-04-16T05:28:21;7.70;99.90
32322;DHT22;61553;48.994;8.940;2023-04-16T05:30:46;7.70;99.90
32322;DHT22;61553;48.994;8.940;2023-04-16T05:33:12;7.80;99.90
32322;DHT22;61553;48.994;8.940;2023-04-16T05:35:37;7.80;99.90
32322;DHT22;61553;48.994;8.940;2023-04-16T05:38:03;7.80;99.90
32322;DHT22;61553;48.994;8.940;2023-04-16T05:40:30;7.80;99.90
32322;DHT22;61553;48.994;8.940;2023-04-16T05:42:55;7.80;99.90
32322;DHT22;61553;48.994;8.940;2023-04-16T05:45:21;7.80;99.90
32322;DHT22;61553;48.994;8.940;2023-04-16T05:47:47;7.90;99.90
32322;DHT22;61553;48.994;8.940;2023-04-16T05:50:12;7.80;99.90
32322;DHT22;61553;48.994;8.940;2023-04-16T05:52:38;7.90;99.90
32322;DHT22;61553;48.994;8.940;2023-04-16T05:55:04;7.80;99.90
32322;DHT22;61553;48.994;8.940;2023-04-16T05:57:30;7.80;99.90
32322;DHT22;61553;48.994;8.940;2023-04-16T05:59:55;7.80;99.90
32322;DHT22;61553;48.994;8.940;2023-04-16T06:02:21;7.80;99.90
32322;DHT22;61553;48.994;8.940;2023-04-16T06:04:47;7.90;99.90
32322;DHT22;61553;48.994;8.940;2023-04-16T06:07:14;7.90;99.90
32322;DHT22;61553;48.994;8.940;2023-04-16T06:09:39;7.90;99.90
32322;DHT22;61553;48.994;8.940;2023-04-16T06:12:06;7.90;99.90
32322;DHT22;61553;48.994;8.940;2023-04-16T06:14:31;8.00;99.90
32322;DHT22;61553;48.994;8.940;2023-04-16T06:16:57;8.00;99.90
32322;DHT22;61553;48.994;8.940;2023-04-16T06:19:23;8.00;99.90
32322;DHT22;61553;48.994;8.940;2023-04-16T06:21:48;8.10;99.90
32322;DHT22;61553;48.994;8.940;2023-04-16T06:24:14;8.10;99.90
32322;DHT22;61553;48.994;8.940;2023-04-16T06:26:40;8.20;99.90
32322;DHT22;61553;48.994;8.940;2023-04-16T06:29:06;8.30;99.90
32322;DHT22;61553;48.994;8.940;2023-04-16T06:31:31;8.30;99.90
32322;DHT22;61553;48.994;8.940;2023-04-16T06:33:57;8.50;99.90
32322;DHT22;61553;48.994;8.940;2023-04-16T06:36:23;8.60;99.90
32322;DHT22;61553;48.994;8.940;2023-04-16T06:38:48;8.70;99.90
32322;DHT22;61553;48.994;8.940;2023-04-16T06:41:14;8.80;99.90
32322;DHT22;61553;48.994;8.940;2023-04-16T06:43:40;8.90;99.90
32322;DHT22;61553;48.994;8.940;2023-04-16T06:46:05;8.90;99.90
32322;DHT22;61553;48.994;8.940;2023-04-16T06:48:31;9.00;99.90
32322;DHT22;61553;48.994;8.940;2023-04-16T06:50:56;9.00;99.90
32322;DHT22;61553;48.994;8.940;2023-04-16T06:53:22;9.00;99.90
32322;DHT22;61553;48.994;8.940;2023-04-16T06:55:48;9.10;99.90
32322;DHT22;61553;48.994;8.940;2023-04-16T06:58:13;9.10;99.90
32322;DHT22;61553;48.994;8.940;2023-04-16T07:00:39;9.20;99.90
32322;DHT22;61553;48.994;8.940;2023-04-16T07:03:05;9.20;99.90
32322;DHT22;61553;48.994;8.940;2023-04-16T07:05:30;9.30;99.90
32322;DHT22;61553;48.994;8.940;2023-04-16T07:07:57;9.30;99.90
32322;DHT22;61553;48.994;8.940;2023-04-16T07:10:23;9.20;99.90
32322;DHT22;61553;48.994;8.940;2023-04-16T07:12:49;9.20;99.90
32322;DHT22;61553;48.994;8.940;2023-04-16T07:15:15;9.10;99.90
32322;DHT22;61553;48.994;8.940;2023-04-16T07:17:41;9.20;99.90
32322;DHT22;61553;48.994;8.940;2023-04-16T07:20:07;9.20;99.90
32322;DHT22;61553;48.994;8.940;2023-04-16T07:22:33;9.30;99.90
32322;DHT22;61553;48.994;8.940;2023-04-16T07:24:58;9.30;99.90
32322;DHT22;61553;48.994;8.940;2023-04-16T07:27:24;9.30;99.90
32322;DHT22;61553;48.994;8.940;2023-04-16T07:29:50;9.30;99.90
32322;DHT22;61553;48.994;8.940;2023-04-16T07:32:15;9.30;99.90
32322;DHT22;61553;48.994;8.940;2023-04-16T07:34:41;9.30;99.90
32322;DHT22;61553;48.994;8.940;2023-04-16T07:37:08;9.20;99.90
32322;DHT22;61553;48.994;8.940;2023-04-16T07:39:33;9.20;99.90
32322;DHT22;61553;48.994;8.940;2023-04-16T07:41:59;9.30;99.90
32322;DHT22;61553;48.994;8.940;2023-04-16T07:44:25;9.40;99.90
32322;DHT22;61553;48.994;8.940;2023-04-16T07:46:51;9.40;99.90
32322;DHT22;61553;48.994;8.940;2023-04-16T07:49:16;9.40;99.90
32322;DHT22;61553;48.994;8.940;2023-04-16T07:51:42;9.40;99.90
32322;DHT22;61553;48.994;8.940;2023-04-16T07:54:08;9.50;99.90
32322;DHT22;61553;48.994;8.940;2023-04-16T07:56:34;9.40;99.90
32322;DHT22;61553;48.994;8.940;2023-04-16T07:59:00;9.30;99.90
32322;DHT22;61553;48.994;8.940;2023-04-16T08:01:26;9.40;99.90
32322;DHT22;61553;48.994;8.940;2023-04-16T08:03:51;9.30;99.90
32322;DHT22;61553;48.994;8.940;2023-04-16T08:06:17;9.30;99.90
32322;DHT22;61553;48.994;8.940;2023-04-16T08:08:42;9.30;99.90
32322;DHT22;61553;48.994;8.940;2023-04-16T08:11:08;9.30;99.90
32322;DHT22;61553;48.994;8.940;2023-04-16T08:13:34;9.30;99.90
32322;DHT22;61553;48.994;8.940;2023-04-16T08:15:59;9.30;99.90
32322;DHT22;61553;48.994;8.940;2023-04-16T08:18:26;9.20;99.90
32322;DHT22;61553;48.994;8.940;2023-04-16T08:20:51;9.20;99.90
32322;DHT22;61553;48.994;8.940;2023-04-16T08:23:17;9.10;99.90
32322;DHT22;61553;48.994;8.940;2023-04-16T08:25:42;9.20;99.90
32322;DHT22;61553;48.994;8.940;2023-04-16T08:28:08;9.30;99.90
32322;DHT22;61553;48.994;8.940;2023-04-16T08:30:34;9.30;99.90
32322;DHT22;61553;48.994;8.940;2023-04-16T08:32:59;9.30;99.90
32322;DHT22;61553;48.994;8.940;2023-04-16T08:35:26;9.30;99.90
32322;DHT22;61553;48.994;8.940;2023-04-16T08:37:51;9.20;99.90
32322;DHT22;61553;48.994;8.940;2023-04-16T08:40:18;9.30;99.90
32322;DHT22;61553;48.994;8.940;2023-04-16T08:42:53;9.30;99.90
32322;DHT22;61553;48.994;8.940;2023-04-16T08:45:20;9.30;99.90
32322;DHT22;61553;48.994;8.940;2023-04-16T08:47:47;9.40;99.90
32322;DHT22;61553;48.994;8.940;2023-04-16T08:50:14;9.40;99.90
32322;DHT22;61553;48.994;8.940;2023-04-16T08:52:53;9.40;99.90
32322;DHT22;61553;48.994;8.940;2023-04-16T08:55:25;9.60;99.90
32322;DHT22;61553;48.994;8.940;2023-04-16T08:57:57;9.70;99.90
32322;DHT22;61553;48.994;8.940;2023-04-16T09:00:23;9.70;99.90
32322;DHT22;61553;48.994;8.940;2023-04-16T09:02:49;9.70;99.90
32322;DHT22;61553;48.994;8.940;2023-04-16T09:05:16;9.80;99.90
32322;DHT22;61553;48.994;8.940;2023-04-16T09:07:44;9.80;99.90
32322;DHT22;61553;48.994;8.940;2023-04-16T09:10:11;9.90;99.90
32322;DHT22;61553;48.994;8.940;2023-04-16T09:12:37;10.00;99.90
32322;DHT22;61553;48.994;8.940;2023-04-16T09:15:04;9.90;99.90
32322;DHT22;61553;48.994;8.940;2023-04-16T09:17:30;10.00;99.90
32322;DHT22;61553;48.994;8.940;2023-04-16T09:19:56;9.90;99.90
32322;DHT22;61553;48.994;8.940;2023-04-16T09:22:22;10.00;99.90
32322;DHT22;61553;48.994;8.940;2023-04-16T09:24:47;9.80;99.90
32322;DHT22;61553;48.994;8.940;2023-04-16T09:27:13;9.80;99.90
32322;DHT22;61553;48.994;8.940;2023-04-16T09:29:40;9.70;99.90
32322;DHT22;61553;48.994;8.940;2023-04-16T09:32:08;9.70;99.90
32322;DHT22;61553;48.994;8.940;2023-04-16T09:34:36;9.80;99.90
32322;DHT22;61553;48.994;8.940;2023-04-16T09:37:18;9.80;99.90
32322;DHT22;61553;48.994;8.940;2023-04-16T09:39:44;9.90;99.90
32322;DHT22;61553;48.994;8.940;2023-04-16T09:42:21;9.90;99.90
32322;DHT22;61553;48.994;8.940;2023-04-16T09:44:48;10.00;99.90
32322;DHT22;61553;48.994;8.940;2023-04-16T09:47:14;10.00;99.90
32322;DHT22;61553;48.994;8.940;2023-04-16T09:49:40;10.10;99.90
32322;DHT22;61553;48.994;8.940;2023-04-16T09:52:17;10.10;99.90
32322;DHT22;61553;48.994;8.940;2023-04-16T09:54:47;10.00;99.90
32322;DHT22;61553;48.994;8.940;2023-04-16T09:57:13;10.00;99.90
32322;DHT22;61553;48.994;8.940;2023-04-16T09:59:38;9.90;99.90
32322;DHT22;61553;48.994;8.940;2023-04-16T10:02:07;10.00;99.90
32322;DHT22;61553;48.994;8.940;2023-04-16T10:04:49;9.90;99.90
32322;DHT22;61553;48.994;8.940;2023-04-16T10:07:16;9.90;99.90
32322;DHT22;61553;48.994;8.940;2023-04-16T10:09:42;9.80;99.90
32322;DHT22;61553;48.994;8.940;2023-04-16T10:12:08;9.80;99.90
32322;DHT22;61553;48.994;8.940;2023-04-16T10:14:34;9.70;99.90
32322;DHT22;61553;48.994;8.940;2023-04-16T10:17:00;9.60;99.90
32322;DHT22;61553;48.994;8.940;2023-04-16T10:19:26;9.60;99.90
32322;DHT22;61553;48.994;8.940;2023-04-16T10:21:53;9.60;99.90
32322;DHT22;61553;48.994;8.940;2023-04-16T10:24:19;9.60;99.90
32322;DHT22;61553;48.994;8.940;2023-04-16T10:26:46;9.60;99.90
32322;DHT22;61553;48.994;8.940;2023-04-16T10:29:13;9.50;99.90
32322;DHT22;61553;48.994;8.940;2023-04-16T10:31:39;9.50;99.90
32322;DHT22;61553;48.994;8.940;2023-04-16T10:34:08;9.40;99.90
32322;DHT22;61553;48.994;8.940;2023-04-16T10:36:37;9.40;99.90
32322;DHT22;61553;48.994;8.940;2023-04-16T10:39:09;9.50;99.90
32322;DHT22;61553;48.994;8.940;2023-04-16T10:41:36;9.60;99.90
32322;DHT22;61553;48.994;8.940;2023-04-16T10:44:10;9.60;99.90
32322;DHT22;61553;48.994;8.940;2023-04-16T10:49:16;9.70;99.90
32322;DHT22;61553;48.994;8.940;2023-04-16T10:52:09;9.80;99.90
32322;DHT22;61553;48.994;8.940;2023-04-16T10:54:35;9.70;99.90
32322;DHT22;61553;48.994;8.940;2023-04-16T10:57:08;9.60;99.90
32322;DHT22;61553;48.994;8.940;2023-04-16T10:59:36;9.70;99.90
32322;DHT22;61553;48.994;8.940;2023-04-16T11:02:08;9.70;99.90
32322;DHT22;61553;48.994;8.940;2023-04-16T11:04:37;9.70;99.90
32322;DHT22;61553;48.994;8.940;2023-04-16T11:17:41;9.50;99.90
32322;DHT22;61553;48.994;8.940;2023-04-16T11:20:13;9.50;99.90
32322;DHT22;61553;48.994;8.940;2023-04-16T11:22:39;9.50;99.90
32322;DHT22;61553;48.994;8.940;2023-04-16T11:25:06;9.50;99.90
32322;DHT22;61553;48.994;8.940;2023-04-16T11:27:32;9.50;99.90
32322;DHT22;61553;48.994;8.940;2023-04-16T11:30:03;9.60;99.90
32322;DHT22;61553;48.994;8.940;2023-04-16T11:32:34;9.60;99.90
32322;DHT22;61553;48.994;8.940;2023-04-16T11:35:01;9.50;99.90
32322;DHT22;61553;48.994;8.940;2023-04-16T11:37:33;9.50;99.90
32322;DHT22;61553;48.994;8.940;2023-04-16T11:39:59;9.60;99.90
32322;DHT22;61553;48.994;8.940;2023-04-16T11:42:26;9.50;99.90
32322;DHT22;61553;48.994;8.940;2023-04-16T11:44:57;9.50;99.90
32322;DHT22;61553;48.994;8.940;2023-04-16T11:47:25;9.50;99.90
32322;DHT22;61553;48.994;8.940;2023-04-16T11:49:51;9.50;99.90
32322;DHT22;61553;48.994;8.940;2023-04-16T11:52:27;9.50;99.90
32322;DHT22;61553;48.994;8.940;2023-04-16T11:54:53;9.40;99.90
32322;DHT22;61553;48.994;8.940;2023-04-16T11:57:29;9.30;99.90
32322;DHT22;61553;48.994;8.940;2023-04-16T11:59:59;9.30;99.90
32322;DHT22;61553;48.994;8.940;2023-04-16T12:05:02;9.30;99.90
32322;DHT22;61553;48.994;8.940;2023-04-16T12:07:27;9.40;99.90
32322;DHT22;61553;48.994;8.940;2023-04-16T12:10:04;9.40;99.90
32322;DHT22;61553;48.994;8.940;2023-04-16T12:12:32;9.40;99.90
32322;DHT22;61553;48.994;8.940;2023-04-16T12:14:58;9.40;99.90
32322;DHT22;61553;48.994;8.940;2023-04-16T12:17:24;9.40;99.90
32322;DHT22;61553;48.994;8.940;2023-04-16T12:19:51;9.40;99.90
32322;DHT22;61553;48.994;8.940;2023-04-16T12:22:46;9.40;99.90
32322;DHT22;61553;48.994;8.940;2023-04-16T12:25:16;9.50;99.90
32322;DHT22;61553;48.994;8.940;2023-04-16T12:27:52;9.60;99.90
32322;DHT22;61553;48.994;8.940;2023-04-16T12:30:21;9.60;99.90
32322;DHT22;61553;48.994;8.940;2023-04-16T12:32:49;9.60;99.90
32322;DHT22;61553;48.994;8.940;2023-04-16T12:35:35;9.70;99.90
32322;DHT22;61553;48.994;8.940;2023-04-16T12:38:00;9.70;99.90
32322;DHT22;61553;48.994;8.940;2023-04-16T12:40:27;9.60;99.90
32322;DHT22;61553;48.994;8.940;2023-04-16T12:42:53;9.70;99.90
32322;DHT22;61553;48.994;8.940;2023-04-16T12:45:19;9.70;99.90
32322;DHT22;61553;48.994;8.940;2023-04-16T12:47:45;9.70;99.90
32322;DHT22;61553;48.994;8.940;2023-04-16T12:50:11;9.90;99.90
32322;DHT22;61553;48.994;8.940;2023-04-16T12:52:37;9.90;99.90
32322;DHT22;61553;48.994;8.940;2023-04-16T12:55:02;9.90;99.90
32322;DHT22;61553;48.994;8.940;2023-04-16T12:57:28;9.90;99.90
32322;DHT22;61553;48.994;8.940;2023-04-16T12:59:55;9.90;99.90
32322;DHT22;61553;48.994;8.940;2023-04-16T13:02:21;10.00;99.90
32322;DHT22;61553;48.994;8.940;2023-04-16T13:04:48;10.10;99.90
32322;DHT22;61553;48.994;8.940;2023-04-16T13:07:13;10.10;99.90
32322;DHT22;61553;48.994;8.940;2023-04-16T13:09:39;10.10;99.90
32322;DHT22;61553;48.994;8.940;2023-04-16T13:12:06;10.20;99.90
32322;DHT22;61553;48.994;8.940;2023-04-16T13:14:31;10.10;99.90
32322;DHT22;61553;48.994;8.940;2023-04-16T13:16:57;10.20;99.90
32322;DHT22;61553;48.994;8.940;2023-04-16T13:19:22;10.30;99.90
32322;DHT22;61553;48.994;8.940;2023-04-16T13:21:48;10.30;99.90
32322;DHT22;61553;48.994;8.940;2023-04-16T13:24:14;10.40;99.90
32322;DHT22;61553;48.994;8.940;2023-04-16T13:26:39;10.40;99.90
32322;DHT22;61553;48.994;8.940;2023-04-16T13:29:06;10.40;99.90
32322;DHT22;61553;48.994;8.940;2023-04-16T13:31:32;10.40;99.90
32322;DHT22;61553;48.994;8.940;2023-04-16T13:33:58;10.40;99.90
32322;DHT22;61553;48.994;8.940;2023-04-16T13:36:23;10.40;99.90
32322;DHT22;61553;48.994;8.940;2023-04-16T13:38:49;10.30;99.90
32322;DHT22;61553;48.994;8.940;2023-04-16T13:41:15;10.30;99.90
32322;DHT22;61553;48.994;8.940;2023-04-16T13:43:40;10.20;99.90
32322;DHT22;61553;48.994;8.940;2023-04-16T13:46:06;10.10;99.90
32322;DHT22;61553;48.994;8.940;2023-04-16T13:48:31;10.10;99.90
32322;DHT22;61553;48.994;8.940;2023-04-16T13:50:57;10.00;99.90
32322;DHT22;61553;48.994;8.940;2023-04-16T13:53:23;9.90;99.90
32322;DHT22;61553;48.994;8.940;2023-04-16T13:55:48;9.90;99.90
32322;DHT22;61553;48.994;8.940;2023-04-16T13:58:15;9.70;99.90
32322;DHT22;61553;48.994;8.940;2023-04-16T14:00:41;9.70;99.90
32322;DHT22;61553;48.994;8.940;2023-04-16T14:03:07;9.60;99.90
32322;DHT22;61553;48.994;8.940;2023-04-16T14:05:33;9.60;99.90
32322;DHT22;61553;48.994;8.940;2023-04-16T14:07:58;9.60;99.90
32322;DHT22;61553;48.994;8.940;2023-04-16T14:10:24;9.60;99.90
32322;DHT22;61553;48.994;8.940;2023-04-16T14:12:50;9.60;99.90
32322;DHT22;61553;48.994;8.940;2023-04-16T14:15:16;9.70;99.90
32322;DHT22;61553;48.994;8.940;2023-04-16T14:17:43;9.70;99.90
32322;DHT22;61553;48.994;8.940;2023-04-16T14:20:11;9.70;99.90
32322;DHT22;61553;48.994;8.940;2023-04-16T14:22:37;9.70;99.90
32322;DHT22;61553;48.994;8.940;2023-04-16T14:25:03;9.70;99.90
32322;DHT22;61553;48.994;8.940;2023-04-16T14:27:29;9.70;99.90
32322;DHT22;61553;48.994;8.940;2023-04-16T14:29:54;9.70;99.90
32322;DHT22;61553;48.994;8.940;2023-04-16T14:32:20;9.70;99.90
32322;DHT22;61553;48.994;8.940;2023-04-16T14:34:46;9.70;99.90
32322;DHT22;61553;48.994;8.940;2023-04-16T14:37:14;9.70;99.90
32322;DHT22;61553;48.994;8.940;2023-04-16T14:39:40;9.80;99.90
32322;DHT22;61553;48.994;8.940;2023-04-16T14:42:06;9.70;99.90
32322;DHT22;61553;48.994;8.940;2023-04-16T14:44:31;9.70;99.90
32322;DHT22;61553;48.994;8.940;2023-04-16T14:46:57;9.70;99.90
32322;DHT22;61553;48.994;8.940;2023-04-16T14:49:23;9.70;99.90
32322;DHT22;61553;48.994;8.940;2023-04-16T14:51:49;9.70;99.90
32322;DHT22;61553;48.994;8.940;2023-04-16T14:54:17;9.70;99.90
32322;DHT22;61553;48.994;8.940;2023-04-16T14:56:44;9.70;99.90
32322;DHT22;61553;48.994;8.940;2023-04-16T14:59:10;9.70;99.90
32322;DHT22;61553;48.994;8.940;2023-04-16T15:01:35;9.80;99.90
32322;DHT22;61553;48.994;8.940;2023-04-16T15:04:04;9.70;99.90
32322;DHT22;61553;48.994;8.940;2023-04-16T15:06:30;9.60;99.90
32322;DHT22;61553;48.994;8.940;2023-04-16T15:08:56;9.70;99.90
32322;DHT22;61553;48.994;8.940;2023-04-16T15:11:22;9.70;99.90
32322;DHT22;61553;48.994;8.940;2023-04-16T15:13:47;9.60;99.90
32322;DHT22;61553;48.994;8.940;2023-04-16T15:16:13;9.70;99.90
32322;DHT22;61553;48.994;8.940;2023-04-16T15:18:39;9.70;99.90
32322;DHT22;61553;48.994;8.940;2023-04-16T15:21:04;9.70;99.90
32322;DHT22;61553;48.994;8.940;2023-04-16T15:23:30;9.70;99.90
32322;DHT22;61553;48.994;8.940;2023-04-16T15:25:56;9.70;99.90
32322;DHT22;61553;48.994;8.940;2023-04-16T15:28:22;9.60;99.90
32322;DHT22;61553;48.994;8.940;2023-04-16T15:30:49;9.60;99.90
32322;DHT22;61553;48.994;8.940;2023-04-16T15:33:16;9.70;99.90
32322;DHT22;61553;48.994;8.940;2023-04-16T15:35:42;9.70;99.90
32322;DHT22;61553;48.994;8.940;2023-04-16T15:38:08;9.70;99.90
32322;DHT22;61553;48.994;8.940;2023-04-16T15:40:34;9.70;99.90
32322;DHT22;61553;48.994;8.940;2023-04-16T15:43:00;9.70;99.90
32322;DHT22;61553;48.994;8.940;2023-04-16T15:45:26;9.70;99.90
32322;DHT22;61553;48.994;8.940;2023-04-16T15:47:52;9.80;99.90
32322;DHT22;61553;48.994;8.940;2023-04-16T15:50:18;9.80;99.90
32322;DHT22;61553;48.994;8.940;2023-04-16T15:52:45;9.80;99.90
32322;DHT22;61553;48.994;8.940;2023-04-16T15:55:10;9.80;99.90
32322;DHT22;61553;48.994;8.940;2023-04-16T15:57:36;9.80;99.90